Hunmanby, United Kingdom
Current Conditions -  °F | °C
As of 11:50 PM on Wednesday 22 Oct 2014 (Local Time) from EGXV Reporting Station
Broken Clouds Broken Clouds  
Wind Chill: 10°   Ceiling: 14000
Heat Index: 10°   Visibility: 6mi
Dew Point:   Wind: 7mph
Humidity: 94%   Direction: 210°SSW
Pressure: 30.06"   Gusts: NA
Location:  54.18°N, 0.32°W
Report Text: EGXV 222250Z AUTO 21006KT 9999 BKN140/// 10/09 Q1018
Loading
Personal Weather Stations






























Interactive Weather Map
Tropical Storm Tracking
New forecast layout! Learn more

10-Day Weather Forecast

Advertisements
Track Severe Weather on mobile